createdAt,value
2022-11-24T00:01:31.670Z,1.80
2022-11-24T00:03:34.732Z,1.95
2022-11-24T00:05:39.318Z,1.80
2022-11-24T00:07:42.096Z,1.88
2022-11-24T00:09:44.927Z,1.85
2022-11-24T00:11:47.704Z,1.33
2022-11-24T00:13:50.805Z,1.70
2022-11-24T00:15:53.487Z,1.58
2022-11-24T00:17:56.209Z,1.73
2022-11-24T00:19:58.911Z,1.33
2022-11-24T00:22:02.988Z,1.60
2022-11-24T00:24:06.237Z,2.22
2022-11-24T00:26:11.143Z,1.70
2022-11-24T00:28:13.797Z,1.70
2022-11-24T00:30:17.000Z,1.73
2022-11-24T00:32:19.733Z,1.85
2022-11-24T00:34:22.475Z,2.95
2022-11-24T00:36:30.584Z,1.70
2022-11-24T00:38:34.697Z,1.83
2022-11-24T00:40:37.356Z,2.00
2022-11-24T00:42:40.058Z,1.85
2022-11-24T00:44:42.731Z,2.00
2022-11-24T00:46:45.490Z,1.52
2022-11-24T00:48:48.446Z,1.80
2022-11-24T00:50:57.871Z,1.67
2022-11-24T00:53:00.550Z,2.58
2022-11-24T00:55:05.004Z,2.28
2022-11-24T00:57:07.741Z,2.38
2022-11-24T00:59:10.500Z,2.08
2022-11-24T01:01:15.032Z,1.63
2022-11-24T01:03:21.465Z,1.70
2022-11-24T01:05:24.172Z,1.77
2022-11-24T01:07:26.997Z,1.88
2022-11-24T01:09:29.681Z,1.73
2022-11-24T01:11:56.156Z,1.30
2022-11-24T01:14:00.399Z,1.85
2022-11-24T01:16:03.176Z,2.00
2022-11-24T01:18:06.606Z,2.78
2022-11-24T01:20:10.612Z,1.77
2022-11-24T01:22:13.259Z,1.77
2022-11-24T01:24:16.457Z,1.60
2022-11-24T01:26:21.549Z,1.67
2022-11-24T01:28:25.674Z,1.90
2022-11-24T01:30:28.361Z,1.95
2022-11-24T01:32:32.324Z,1.85
2022-11-24T01:34:35.200Z,1.50
2022-11-24T01:36:38.054Z,1.58
2022-11-24T01:38:40.896Z,1.90
2022-11-24T01:40:43.634Z,1.85
2022-11-24T01:42:49.311Z,1.67
2022-11-24T01:45:29.388Z,1.90
2022-11-24T01:47:36.796Z,1.50
2022-11-24T01:49:45.739Z,1.77
2022-11-24T01:51:54.282Z,1.60
2022-11-24T01:54:00.341Z,1.83
2022-11-24T01:56:04.188Z,1.52
2022-11-24T01:58:09.252Z,1.70
2022-11-24T02:00:15.012Z,1.90
2022-11-24T02:02:18.542Z,1.55
2022-11-24T02:04:27.005Z,2.30
2022-11-24T02:06:34.272Z,1.63
2022-11-24T02:08:43.776Z,1.67
2022-11-24T02:10:47.212Z,1.63
2022-11-24T02:12:54.483Z,1.30
2022-11-24T02:14:57.658Z,1.52
2022-11-24T02:17:00.320Z,1.63
2022-11-24T02:19:03.357Z,1.73
2022-11-24T02:21:08.205Z,2.00
2022-11-24T02:23:24.603Z,2.05
2022-11-24T02:25:35.470Z,1.60
2022-11-24T02:27:39.592Z,1.83
2022-11-24T02:29:43.025Z,1.35
2022-11-24T02:31:49.134Z,1.45
2022-11-24T02:33:52.159Z,1.48
2022-11-24T02:35:55.097Z,1.83
2022-11-24T02:37:57.722Z,1.40
2022-11-24T02:40:00.423Z,1.40
2022-11-24T02:42:07.311Z,1.40
2022-11-24T02:44:14.490Z,1.40
2022-11-24T02:46:17.233Z,1.27
2022-11-24T02:48:19.871Z,1.05
2022-11-24T02:50:22.581Z,1.10
2022-11-24T02:52:25.234Z,1.95
2022-11-24T02:54:28.002Z,1.30
2022-11-24T02:56:30.733Z,1.60
2022-11-24T02:58:33.422Z,1.20
2022-11-24T03:00:37.498Z,1.30
2022-11-24T03:02:40.416Z,1.63
2022-11-24T03:04:44.557Z,1.50
2022-11-24T03:06:47.309Z,1.63
2022-11-24T03:08:50.087Z,1.60
2022-11-24T03:10:52.831Z,1.50
2022-11-24T03:12:56.025Z,1.48
2022-11-24T03:14:58.767Z,1.20
2022-11-24T03:17:02.911Z,1.52
2022-11-24T03:19:06.171Z,1.70
2022-11-24T03:21:09.078Z,1.30
2022-11-24T03:23:12.031Z,1.52
2022-11-24T03:25:14.744Z,1.70
2022-11-24T03:27:17.421Z,1.58
2022-11-24T03:29:20.120Z,1.48
2022-11-24T03:31:22.968Z,1.83
2022-11-24T03:33:27.052Z,2.28
2022-11-24T03:35:29.755Z,1.40
2022-11-24T03:37:32.431Z,1.83
2022-11-24T03:39:35.183Z,1.27
2022-11-24T03:41:37.875Z,1.38
2022-11-24T03:43:43.691Z,1.45
2022-11-24T03:45:47.315Z,1.48
2022-11-24T03:47:51.470Z,1.40
2022-11-24T03:49:55.565Z,1.70
2022-11-24T03:51:58.493Z,1.60
2022-11-24T03:54:02.846Z,1.25
2022-11-24T03:56:05.761Z,1.70
2022-11-24T03:58:08.384Z,1.80
2022-11-24T04:00:13.188Z,1.73
2022-11-24T04:02:16.042Z,1.45
2022-11-24T04:04:18.768Z,1.60
2022-11-24T04:06:22.870Z,2.15
2022-11-24T04:08:25.823Z,1.40
2022-11-24T04:10:28.542Z,1.42
2022-11-24T04:12:45.275Z,1.48
2022-11-24T04:14:47.957Z,1.50
2022-11-24T04:16:50.694Z,1.42
2022-11-24T04:18:53.570Z,1.30
2022-11-24T04:20:56.235Z,1.30
2022-11-24T04:23:00.323Z,1.23
2022-11-24T04:25:03.030Z,1.45
2022-11-24T04:27:05.695Z,1.35
2022-11-24T04:29:08.373Z,1.10
2022-11-24T04:31:11.142Z,1.52
2022-11-24T04:33:14.302Z,1.77
2022-11-24T04:35:16.973Z,1.40
2022-11-24T04:37:19.855Z,1.42
2022-11-24T04:39:28.900Z,1.85
2022-11-24T04:41:31.666Z,1.85
2022-11-24T04:43:40.314Z,1.50
2022-11-24T04:45:43.373Z,1.30
2022-11-24T04:47:46.110Z,1.50
2022-11-24T04:49:49.612Z,1.70
2022-11-24T04:51:52.308Z,1.80
2022-11-24T04:53:55.027Z,1.38
2022-11-24T04:56:05.798Z,1.63
2022-11-24T04:58:09.608Z,1.50
2022-11-24T05:00:13.685Z,1.83
2022-11-24T05:02:16.393Z,1.23
2022-11-24T05:04:20.354Z,1.10
2022-11-24T05:06:23.474Z,1.65
2022-11-24T05:08:26.186Z,1.88
2022-11-24T05:10:37.286Z,1.45
2022-11-24T05:12:41.383Z,1.60
2022-11-24T05:14:44.071Z,1.25
2022-11-24T05:16:46.786Z,2.60
2022-11-24T05:18:49.469Z,1.50
2022-11-24T05:20:52.240Z,1.20
2022-11-24T05:22:54.935Z,2.42
2022-11-24T05:24:57.652Z,1.30
2022-11-24T05:27:00.315Z,2.65
2022-11-24T05:29:04.613Z,1.23
2022-11-24T05:31:07.412Z,1.65
2022-11-24T05:33:16.085Z,1.95
2022-11-24T05:35:19.043Z,1.35
2022-11-24T05:37:22.278Z,1.23
2022-11-24T05:39:25.152Z,1.42
2022-11-24T05:41:27.909Z,2.00
2022-11-24T05:43:30.975Z,1.23
2022-11-24T05:45:35.011Z,1.35
2022-11-24T05:47:38.181Z,1.40
2022-11-24T05:49:40.867Z,1.90
2022-11-24T05:51:43.624Z,1.55
2022-11-24T05:53:46.353Z,1.70
2022-11-24T05:55:49.241Z,1.90
2022-11-24T05:57:59.249Z,1.50
2022-11-24T06:00:01.953Z,1.50
2022-11-24T06:02:06.119Z,1.63
2022-11-24T06:04:08.897Z,1.63
2022-11-24T06:06:12.198Z,1.75
2022-11-24T06:08:15.323Z,1.30
2022-11-24T06:10:18.398Z,1.63
2022-11-24T06:12:21.163Z,1.30
2022-11-24T06:14:24.383Z,1.33
2022-11-24T06:16:27.111Z,1.60
2022-11-24T06:18:31.213Z,1.05
2022-11-24T06:20:33.979Z,1.30
2022-11-24T06:22:36.813Z,1.80
2022-11-24T06:24:39.508Z,1.50
2022-11-24T06:26:42.552Z,1.08
2022-11-24T06:28:45.291Z,1.08
2022-11-24T06:30:48.239Z,1.88
2022-11-24T06:32:55.035Z,1.50
2022-11-24T06:37:01.718Z,1.42
2022-11-24T06:39:05.678Z,1.25
2022-11-24T06:41:10.726Z,1.35
2022-11-24T06:43:15.171Z,1.50
2022-11-24T06:45:18.400Z,2.25
2022-11-24T06:47:21.098Z,1.30
2022-11-24T06:49:23.799Z,1.40
2022-11-24T06:51:28.325Z,1.40
2022-11-24T06:53:31.295Z,1.33
2022-11-24T06:55:33.981Z,1.00
2022-11-24T06:57:36.780Z,2.05
2022-11-24T06:59:39.501Z,2.10
2022-11-24T07:01:42.220Z,2.33
2022-11-24T07:03:45.131Z,1.58
2022-11-24T07:05:48.007Z,1.90
2022-11-24T07:07:52.125Z,1.13
2022-11-24T07:09:54.912Z,2.10
2022-11-24T07:11:57.621Z,1.80
2022-11-24T07:14:00.488Z,1.88
2022-11-24T07:16:11.856Z,2.65
2022-11-24T07:18:14.771Z,1.80
2022-11-24T07:20:18.075Z,2.55
2022-11-24T07:22:20.735Z,1.85
2022-11-24T07:24:24.817Z,1.90
2022-11-24T07:26:28.047Z,1.70
2022-11-24T07:28:30.937Z,2.25
2022-11-24T07:30:33.716Z,2.28
2022-11-24T07:32:36.434Z,1.85
2022-11-24T07:34:39.197Z,1.50
2022-11-24T07:36:41.899Z,1.73
2022-11-24T07:38:44.791Z,1.85
2022-11-24T07:40:48.877Z,2.38
2022-11-24T07:42:51.780Z,2.42
2022-11-24T07:44:54.503Z,1.95
2022-11-24T07:46:57.192Z,2.20
2022-11-24T07:48:59.911Z,1.70
2022-11-24T07:51:03.228Z,2.33
2022-11-24T07:53:06.092Z,2.10
2022-11-24T07:55:09.858Z,1.75
2022-11-24T07:57:14.010Z,1.88
2022-11-24T07:59:16.778Z,1.70
2022-11-24T08:01:19.852Z,1.50
2022-11-24T08:03:23.877Z,2.00
2022-11-24T08:05:26.693Z,2.15
2022-11-24T08:07:29.464Z,2.00
2022-11-24T08:09:32.226Z,2.75
2022-11-24T08:11:34.993Z,1.70
2022-11-24T08:13:39.708Z,1.60
2022-11-24T08:15:42.457Z,1.65
2022-11-24T08:17:45.197Z,1.38
2022-11-24T08:19:47.950Z,1.40
2022-11-24T08:21:51.060Z,1.98
2022-11-24T08:23:55.987Z,2.35
2022-11-24T08:26:04.775Z,1.63
2022-11-24T08:28:07.479Z,1.42
2022-11-24T08:30:13.403Z,2.00
2022-11-24T08:32:22.031Z,1.80
2022-11-24T08:34:28.287Z,1.92
2022-11-24T08:36:31.260Z,1.80
2022-11-24T08:38:34.065Z,2.10
2022-11-24T08:40:36.839Z,2.47
2022-11-24T08:42:39.723Z,1.88
2022-11-24T08:44:43.077Z,1.73
2022-11-24T08:46:47.361Z,2.25
2022-11-24T08:48:51.051Z,2.50
2022-11-24T08:50:53.721Z,2.13
2022-11-24T08:52:56.400Z,1.40
2022-11-24T08:54:59.122Z,2.30
2022-11-24T08:57:01.784Z,1.80
2022-11-24T08:59:04.611Z,1.90
2022-11-24T09:01:08.965Z,2.53
2022-11-24T09:03:13.399Z,1.80
2022-11-24T09:05:43.674Z,1.63
2022-11-24T09:07:38.878Z,1.50
2022-11-24T09:09:41.688Z,1.55
2022-11-24T09:11:44.363Z,1.55
2022-11-24T09:13:47.374Z,1.65
2022-11-24T09:15:50.076Z,1.50
2022-11-24T09:17:52.904Z,1.50
2022-11-24T09:19:57.014Z,1.58
2022-11-24T09:21:59.795Z,1.60
2022-11-24T09:24:02.557Z,1.13
2022-11-24T09:26:07.007Z,1.10
2022-11-24T09:28:09.762Z,1.55
2022-11-24T09:30:13.886Z,0.63
2022-11-24T09:32:16.672Z,1.45
2022-11-24T09:34:19.414Z,1.10
2022-11-24T09:36:24.853Z,0.70
2022-11-24T09:38:27.917Z,1.05
2022-11-24T09:40:31.431Z,0.90
2022-11-24T09:42:40.898Z,0.90
2022-11-24T09:45:30.352Z,0.60
2022-11-24T09:47:55.903Z,0.80
2022-11-24T09:50:02.741Z,0.80
2022-11-24T09:52:13.175Z,0.63
2022-11-24T09:54:19.880Z,0.88
2022-11-24T09:56:25.971Z,0.65
2022-11-24T09:58:39.658Z,0.80
2022-11-24T10:00:43.132Z,0.77
2022-11-24T10:02:49.476Z,0.70
2022-11-24T10:04:54.413Z,0.90
2022-11-24T10:07:05.072Z,0.60
2022-11-24T10:09:19.300Z,0.68
2022-11-24T10:11:35.913Z,0.70
2022-11-24T10:14:07.190Z,0.40
2022-11-24T10:16:18.319Z,0.95
2022-11-24T10:18:38.939Z,1.13
2022-11-24T10:20:51.032Z,0.63
2022-11-24T10:23:10.004Z,0.80
2022-11-24T10:25:23.380Z,0.80
2022-11-24T10:27:31.439Z,0.55
2022-11-24T10:29:40.004Z,0.70
2022-11-24T10:31:44.716Z,0.60
2022-11-24T10:33:48.818Z,0.60
2022-11-24T10:35:56.940Z,1.00
2022-11-24T10:38:08.665Z,0.90
2022-11-24T10:40:40.972Z,0.90
2022-11-24T10:42:43.491Z,0.43
2022-11-24T10:44:46.452Z,0.70
2022-11-24T10:46:49.385Z,0.30
2022-11-24T10:48:57.264Z,0.50
2022-11-24T10:51:18.739Z,0.40
2022-11-24T10:53:25.665Z,0.30
2022-11-24T10:55:50.769Z,0.60
2022-11-24T10:57:54.922Z,0.50
2022-11-24T10:59:57.770Z,0.50
2022-11-24T11:02:01.188Z,0.40
2022-11-24T11:04:18.420Z,0.50
2022-11-24T11:06:24.544Z,0.40
2022-11-24T11:08:30.235Z,0.50
2022-11-24T11:10:33.036Z,0.50
2022-11-24T11:12:43.898Z,0.75
2022-11-24T11:14:48.693Z,0.70
2022-11-24T11:16:54.364Z,1.02
2022-11-24T11:18:57.222Z,0.60
2022-11-24T11:21:02.934Z,0.60
2022-11-24T11:23:16.803Z,0.57
2022-11-24T11:25:23.144Z,0.60
2022-11-24T11:27:27.286Z,0.70
2022-11-24T11:34:29.972Z,0.60
2022-11-24T11:36:34.044Z,0.52
2022-11-24T11:38:39.984Z,0.70
2022-11-24T11:40:44.172Z,0.85
2022-11-24T11:43:02.481Z,0.50
2022-11-24T11:45:12.262Z,0.45
2022-11-24T11:47:27.649Z,0.63
2022-11-24T11:49:30.595Z,0.50
2022-11-24T11:51:45.602Z,0.60
2022-11-24T11:53:58.066Z,0.80
2022-11-24T11:56:13.273Z,0.70
2022-11-24T11:58:43.315Z,0.70
2022-11-24T12:00:53.384Z,0.90
2022-11-24T12:03:35.786Z,0.73
2022-11-24T12:05:48.841Z,0.60
2022-11-24T12:08:10.252Z,0.95
2022-11-24T12:10:24.224Z,0.60
2022-11-24T12:12:43.395Z,0.70
2022-11-24T12:15:00.105Z,0.88
2022-11-24T12:17:11.338Z,0.90
2022-11-24T12:19:32.536Z,0.70
2022-11-24T12:21:43.515Z,0.70
2022-11-24T12:24:04.697Z,1.00
2022-11-24T12:26:17.267Z,0.80
2022-11-24T12:28:34.766Z,0.90
2022-11-24T12:30:44.495Z,0.85
2022-11-24T12:33:18.180Z,0.73
2022-11-24T12:35:29.837Z,0.57
2022-11-24T12:37:48.137Z,0.93
2022-11-24T12:39:58.084Z,0.60
2022-11-24T12:42:10.814Z,1.27
2022-11-24T12:44:42.113Z,1.05
2022-11-24T12:46:53.461Z,1.05
2022-11-24T12:49:07.863Z,0.95
2022-11-24T12:51:18.411Z,1.00
2022-11-24T12:53:25.437Z,0.90
2022-11-24T12:55:30.032Z,0.68
2022-11-24T12:57:40.666Z,1.40
2022-11-24T12:59:50.355Z,0.95
2022-11-24T13:02:02.899Z,0.80
2022-11-24T13:04:13.918Z,0.98
2022-11-24T13:06:22.238Z,1.15
2022-11-24T13:08:26.072Z,1.00
2022-11-24T13:12:59.477Z,1.00
2022-11-24T13:15:02.263Z,0.75
2022-11-24T13:17:42.079Z,1.23
2022-11-24T13:19:47.463Z,0.90
2022-11-24T13:22:02.615Z,0.93
2022-11-24T13:24:07.864Z,1.00
2022-11-24T13:26:29.815Z,1.13
2022-11-24T13:29:17.937Z,0.82
2022-11-24T13:31:27.518Z,1.60
2022-11-24T13:33:33.346Z,0.95
2022-11-24T13:35:36.131Z,1.10
2022-11-24T13:37:52.900Z,1.10
2022-11-24T13:39:57.046Z,0.77
2022-11-24T13:42:02.937Z,0.93
2022-11-24T13:44:24.303Z,1.30
2022-11-24T13:47:03.315Z,1.17
2022-11-24T13:49:15.334Z,1.20
2022-11-24T13:51:24.843Z,1.10
2022-11-24T13:53:34.714Z,0.90
2022-11-24T13:55:40.002Z,1.00
2022-11-24T13:57:44.970Z,1.05
2022-11-24T13:59:48.481Z,1.23
2022-11-24T14:01:58.336Z,1.30
2022-11-24T14:04:34.012Z,1.20
2022-11-24T14:06:41.037Z,1.02
2022-11-24T14:08:48.084Z,0.90
2022-11-24T14:10:51.582Z,1.15
2022-11-24T14:13:19.230Z,1.58
2022-11-24T14:15:24.484Z,1.10
2022-11-24T14:17:28.579Z,1.02
2022-11-24T14:19:32.373Z,1.17
2022-11-24T14:21:40.366Z,1.10
2022-11-24T14:23:44.335Z,1.20
2022-11-24T14:25:50.854Z,1.20
2022-11-24T14:27:53.682Z,0.90
2022-11-24T14:29:57.917Z,0.95
2022-11-24T14:32:03.506Z,0.90
2022-11-24T14:34:16.682Z,0.90
2022-11-24T14:36:19.537Z,1.38
2022-11-24T14:38:22.314Z,1.10
2022-11-24T14:40:42.565Z,0.90
2022-11-24T14:42:51.468Z,1.10
2022-11-24T14:44:56.616Z,1.02
2022-11-24T14:47:04.519Z,1.02
2022-11-24T14:49:08.431Z,1.27
2022-11-24T14:51:16.437Z,1.08
2022-11-24T14:53:26.165Z,0.90
2022-11-24T14:55:31.047Z,1.35
2022-11-24T14:57:35.766Z,1.10
2022-11-24T14:59:39.864Z,1.02
2022-11-24T15:01:42.811Z,1.00
2022-11-24T15:03:45.622Z,0.88
2022-11-24T15:05:54.979Z,0.90
2022-11-24T15:08:03.590Z,1.25
2022-11-24T15:10:08.314Z,1.30
2022-11-24T15:12:22.657Z,0.90
2022-11-24T15:14:46.311Z,0.98
2022-11-24T15:16:49.155Z,1.42
2022-11-24T15:18:58.657Z,1.40
2022-11-24T15:21:03.371Z,1.20
2022-11-24T15:23:22.979Z,1.63
2022-11-24T15:25:33.616Z,1.00
2022-11-24T15:27:36.474Z,1.35
2022-11-24T15:29:39.179Z,1.20
2022-11-24T15:31:47.870Z,1.42
2022-11-24T15:33:54.242Z,1.10
2022-11-24T15:35:57.108Z,1.30
2022-11-24T15:37:59.868Z,1.27
2022-11-24T15:40:02.645Z,1.63
2022-11-24T15:42:05.640Z,1.30
2022-11-24T15:44:09.690Z,1.05
2022-11-24T15:46:12.614Z,1.23
2022-11-24T15:48:18.409Z,1.23
2022-11-24T15:50:21.546Z,1.50
2022-11-24T15:52:24.284Z,1.30
2022-11-24T15:54:27.649Z,1.27
2022-11-24T15:56:32.689Z,1.25
2022-11-24T15:58:35.762Z,1.20
2022-11-24T16:00:38.836Z,1.33
2022-11-24T16:02:41.655Z,1.38
2022-11-24T16:04:45.897Z,1.20
2022-11-24T16:06:48.707Z,1.83
2022-11-24T16:08:51.752Z,1.50
2022-11-24T16:10:54.424Z,1.90
2022-11-24T16:12:57.166Z,2.60
2022-11-24T16:14:59.879Z,2.35
2022-11-24T16:17:02.642Z,1.90
2022-11-24T16:19:05.391Z,2.58
2022-11-24T16:21:09.616Z,1.50
2022-11-24T16:23:12.390Z,1.55
2022-11-24T16:25:15.505Z,1.60
2022-11-24T16:27:18.301Z,1.83
2022-11-24T16:29:23.727Z,1.67
2022-11-24T16:31:27.751Z,1.75
2022-11-24T16:33:30.807Z,2.05
2022-11-24T16:35:33.551Z,1.85
2022-11-24T16:37:37.626Z,1.85
2022-11-24T16:39:41.242Z,1.90
2022-11-24T16:41:46.250Z,2.38
2022-11-24T16:43:49.181Z,3.40
2022-11-24T16:46:04.204Z,3.10
2022-11-24T16:48:07.195Z,2.40
2022-11-24T16:50:11.604Z,2.60
2022-11-24T16:52:14.631Z,1.98
2022-11-24T16:54:18.715Z,2.30
2022-11-24T16:56:21.426Z,2.55
2022-11-24T16:58:24.155Z,3.30
2022-11-24T17:00:26.889Z,3.40
2022-11-24T17:02:29.743Z,3.42
2022-11-24T17:04:32.744Z,3.25
2022-11-24T17:06:36.012Z,2.60
2022-11-24T17:08:40.433Z,3.25
2022-11-24T17:10:44.497Z,2.83
2022-11-24T17:12:47.201Z,2.78
2022-11-24T17:15:16.426Z,3.33
2022-11-24T17:17:13.070Z,2.78
2022-11-24T17:19:15.837Z,2.60
2022-11-24T17:21:20.853Z,2.92
2022-11-24T17:23:23.609Z,2.72
2022-11-24T17:25:26.350Z,2.50
2022-11-24T17:27:30.407Z,3.22
2022-11-24T17:29:33.072Z,3.30
2022-11-24T17:31:36.203Z,2.70
2022-11-24T17:33:38.918Z,3.15
2022-11-24T17:35:41.646Z,3.58
2022-11-24T17:37:44.359Z,3.65
2022-11-24T17:39:59.939Z,3.75
2022-11-24T17:42:09.671Z,3.55
2022-11-24T17:44:13.850Z,4.15
2022-11-24T17:46:16.827Z,4.53
2022-11-24T17:48:19.608Z,3.60
2022-11-24T17:50:25.777Z,4.75
2022-11-24T17:52:30.793Z,6.30
2022-11-24T17:54:48.994Z,4.45
2022-11-24T17:56:51.856Z,5.18
2022-11-24T17:58:55.577Z,5.07
2022-11-24T18:01:00.232Z,4.47
2022-11-24T18:03:03.269Z,5.10
2022-11-24T18:05:06.555Z,4.20
2022-11-24T18:07:09.303Z,4.93
2022-11-24T18:09:12.286Z,6.47
2022-11-24T18:11:17.136Z,5.65
2022-11-24T18:13:48.411Z,7.18
2022-11-24T18:15:42.613Z,4.93
2022-11-24T18:17:46.649Z,5.40
2022-11-24T18:19:49.431Z,16.58
2022-11-24T18:21:52.206Z,8.23
2022-11-24T18:23:55.527Z,6.22
2022-11-24T18:25:59.746Z,11.48
2022-11-24T18:28:02.524Z,12.20
2022-11-24T18:30:06.433Z,9.45
2022-11-24T18:32:09.213Z,5.03
2022-11-24T18:34:13.394Z,4.20
2022-11-24T18:36:18.390Z,5.90
2022-11-24T18:38:21.139Z,5.45
2022-11-24T18:40:23.844Z,5.28
2022-11-24T18:42:26.661Z,10.25
2022-11-24T18:44:29.364Z,9.77
2022-11-24T18:46:32.120Z,6.68
2022-11-24T18:48:35.473Z,5.03
2022-11-24T18:50:39.511Z,4.65
2022-11-24T18:52:42.226Z,5.35
2022-11-24T18:54:44.921Z,5.25
2022-11-24T18:56:47.611Z,4.72
2022-11-24T18:58:53.768Z,4.57
2022-11-24T19:00:56.792Z,4.13
2022-11-24T19:02:59.547Z,5.15
2022-11-24T19:05:02.982Z,4.50
2022-11-24T19:07:07.067Z,4.88
2022-11-24T19:09:13.772Z,5.25
2022-11-24T19:11:20.677Z,5.22
2022-11-24T19:13:23.441Z,4.15
2022-11-24T19:15:26.154Z,4.75
2022-11-24T19:17:28.984Z,4.70
2022-11-24T19:19:34.102Z,4.43
2022-11-24T19:21:38.987Z,4.45
2022-11-24T19:23:43.299Z,5.97
2022-11-24T19:25:46.032Z,6.03
2022-11-24T19:27:48.755Z,6.68
2022-11-24T19:29:51.485Z,23.90
2022-11-24T19:31:55.502Z,21.50
2022-11-24T19:33:59.705Z,19.63
2022-11-24T19:36:03.596Z,10.13
2022-11-24T19:38:06.325Z,10.93
2022-11-24T19:40:11.425Z,8.30
2022-11-24T19:42:14.178Z,8.88
2022-11-24T19:44:17.674Z,6.00
2022-11-24T19:46:21.067Z,4.47
2022-11-24T19:48:23.842Z,4.05
2022-11-24T19:50:26.569Z,4.22
2022-11-24T19:52:29.312Z,4.60
2022-11-24T19:54:33.156Z,3.72
2022-11-24T19:56:38.111Z,4.18
2022-11-24T19:58:41.777Z,5.07
2022-11-24T20:00:44.555Z,3.85
2022-11-24T20:02:47.458Z,3.60
2022-11-24T20:04:50.261Z,4.55
2022-11-24T20:06:52.987Z,3.63
2022-11-24T20:08:55.840Z,6.00
2022-11-24T20:11:03.775Z,4.63
2022-11-24T20:13:07.971Z,5.57
2022-11-24T20:15:11.143Z,4.40
2022-11-24T20:17:14.213Z,5.22
2022-11-24T20:19:18.198Z,5.20
2022-11-24T20:21:22.550Z,4.15
2022-11-24T20:23:25.448Z,4.38
2022-11-24T20:25:28.280Z,4.53
2022-11-24T20:27:31.058Z,4.97
2022-11-24T20:29:35.244Z,4.85
2022-11-24T20:31:40.340Z,5.07
2022-11-24T20:33:43.755Z,4.53
2022-11-24T20:35:46.486Z,5.05
2022-11-24T20:37:49.374Z,4.50
2022-11-24T20:39:52.162Z,4.70
2022-11-24T20:41:56.073Z,5.57
2022-11-24T20:44:01.041Z,5.00
2022-11-24T20:46:07.234Z,5.22
2022-11-24T20:48:10.056Z,5.10
2022-11-24T20:50:12.809Z,5.13
2022-11-24T20:52:15.552Z,4.43
2022-11-24T20:54:19.379Z,4.70
2022-11-24T20:56:23.854Z,5.22
2022-11-24T20:58:26.567Z,6.15
2022-11-24T21:00:29.312Z,5.88
2022-11-24T21:02:33.536Z,7.07
2022-11-24T21:04:36.889Z,6.20
2022-11-24T21:06:40.822Z,5.63
2022-11-24T21:08:43.756Z,6.28
2022-11-24T21:10:53.488Z,5.25
2022-11-24T21:12:56.216Z,5.43
2022-11-24T21:14:58.997Z,5.93
2022-11-24T21:17:01.715Z,5.88
2022-11-24T21:19:08.701Z,7.70
2022-11-24T21:21:11.985Z,6.55
2022-11-24T21:23:16.258Z,8.23
2022-11-24T21:25:19.000Z,6.32
2022-11-24T21:27:21.847Z,11.13
2022-11-24T21:29:25.601Z,5.30
2022-11-24T21:31:28.434Z,9.07
2022-11-24T21:33:31.445Z,6.50
2022-11-24T21:35:37.632Z,5.60
2022-11-24T21:37:40.408Z,5.43
2022-11-24T21:39:44.647Z,5.45
2022-11-24T21:41:47.664Z,5.75
2022-11-24T21:43:51.100Z,6.63
2022-11-24T21:45:53.869Z,6.85
2022-11-24T21:47:57.470Z,7.63
2022-11-24T21:50:00.140Z,7.28
2022-11-24T21:52:04.408Z,6.78
2022-11-24T21:54:07.327Z,9.05
2022-11-24T21:56:13.106Z,9.50
2022-11-24T21:58:15.881Z,5.90
2022-11-24T22:00:19.750Z,7.53
2022-11-24T22:02:22.518Z,6.28
2022-11-24T22:04:25.372Z,6.57
2022-11-24T22:06:28.186Z,6.47
2022-11-24T22:08:32.661Z,6.22
2022-11-24T22:10:35.384Z,5.85
2022-11-24T22:12:38.155Z,6.10
2022-11-24T22:14:40.916Z,7.13
2022-11-24T22:16:43.717Z,5.70
2022-11-24T22:18:47.569Z,6.43
2022-11-24T22:20:55.273Z,5.70
2022-11-24T22:22:57.998Z,4.97
2022-11-24T22:25:02.204Z,5.95
2022-11-24T22:27:04.999Z,5.15
2022-11-24T22:29:08.408Z,5.38
2022-11-24T22:31:13.189Z,4.93
2022-11-24T22:33:15.933Z,4.30
2022-11-24T22:35:18.757Z,4.82
2022-11-24T22:37:21.444Z,4.32
2022-11-24T22:39:24.304Z,3.97
2022-11-24T22:41:28.460Z,4.00
2022-11-24T22:43:33.263Z,3.92
2022-11-24T22:45:36.646Z,3.92
2022-11-24T22:47:39.465Z,3.22
2022-11-24T22:49:42.294Z,3.75
2022-11-24T22:51:45.014Z,3.75
2022-11-24T22:53:48.817Z,3.70
2022-11-24T22:55:51.546Z,3.50
2022-11-24T22:57:57.118Z,4.68
2022-11-24T22:59:59.916Z,3.35
2022-11-24T23:02:02.637Z,3.22
2022-11-24T23:04:05.771Z,3.45
2022-11-24T23:06:12.472Z,3.00
2022-11-24T23:08:15.199Z,2.40
2022-11-24T23:10:18.006Z,3.20
2022-11-24T23:12:20.722Z,3.00
2022-11-24T23:14:26.673Z,2.85
2022-11-24T23:16:29.989Z,2.95
2022-11-24T23:18:32.889Z,2.75
2022-11-24T23:20:36.266Z,3.05
2022-11-24T23:22:39.056Z,3.30
2022-11-24T23:24:41.849Z,2.50
2022-11-24T23:26:44.630Z,2.70
2022-11-24T23:28:47.716Z,2.95
2022-11-24T23:30:51.819Z,2.70
2022-11-24T23:32:54.560Z,3.20
2022-11-24T23:34:57.313Z,2.72
2022-11-24T23:37:00.110Z,2.95
2022-11-24T23:39:04.223Z,3.80
2022-11-24T23:41:10.850Z,3.33
2022-11-24T23:43:13.639Z,2.55
2022-11-24T23:45:16.384Z,3.22
2022-11-24T23:47:20.440Z,3.50
2022-11-24T23:49:23.228Z,3.20
2022-11-24T23:51:27.811Z,2.92
2022-11-24T23:53:32.410Z,3.40
2022-11-24T23:55:35.192Z,3.55
2022-11-24T23:57:37.901Z,2.88
2022-11-24T23:59:40.623Z,3.47
